sensor_id;sensor_type;location;lat;lon;timestamp;temperature;humidity
36594;DHT22;22603;47.900;8.146;2022-08-19T00:01:16;15.10;99.90
36594;DHT22;22603;47.900;8.146;2022-08-19T00:04:18;15.10;99.90
36594;DHT22;22603;47.900;8.146;2022-08-19T00:07:06;15.10;99.90
36594;DHT22;22603;47.900;8.146;2022-08-19T00:09:54;15.00;99.90
36594;DHT22;22603;47.900;8.146;2022-08-19T00:12:42;15.00;99.90
36594;DHT22;22603;47.900;8.146;2022-08-19T00:15:40;15.00;99.90
36594;DHT22;22603;47.900;8.146;2022-08-19T00:18:31;15.00;99.90
36594;DHT22;22603;47.900;8.146;2022-08-19T00:21:19;15.00;99.90
36594;DHT22;22603;47.900;8.146;2022-08-19T00:24:07;15.00;99.90
36594;DHT22;22603;47.900;8.146;2022-08-19T00:26:55;15.00;99.90
36594;DHT22;22603;47.900;8.146;2022-08-19T00:30:03;15.00;99.90
36594;DHT22;22603;47.900;8.146;2022-08-19T00:32:51;15.00;99.90
36594;DHT22;22603;47.900;8.146;2022-08-19T00:35:40;15.00;99.90
36594;DHT22;22603;47.900;8.146;2022-08-19T00:38:29;14.90;99.90
36594;DHT22;22603;47.900;8.146;2022-08-19T00:41:24;14.90;99.90
36594;DHT22;22603;47.900;8.146;2022-08-19T00:44:15;14.90;99.90
36594;DHT22;22603;47.900;8.146;2022-08-19T00:47:07;14.90;99.90
36594;DHT22;22603;47.900;8.146;2022-08-19T00:49:59;15.00;99.90
36594;DHT22;22603;47.900;8.146;2022-08-19T00:52:49;15.00;99.90
36594;DHT22;22603;47.900;8.146;2022-08-19T00:55:39;14.90;99.90
36594;DHT22;22603;47.900;8.146;2022-08-19T00:58:32;15.00;99.90
36594;DHT22;22603;47.900;8.146;2022-08-19T01:01:20;15.00;99.90
36594;DHT22;22603;47.900;8.146;2022-08-19T01:04:07;15.10;99.90
36594;DHT22;22603;47.900;8.146;2022-08-19T01:06:55;15.10;99.90
36594;DHT22;22603;47.900;8.146;2022-08-19T01:09:43;15.10;99.90
36594;DHT22;22603;47.900;8.146;2022-08-19T01:12:32;15.10;99.90
36594;DHT22;22603;47.900;8.146;2022-08-19T01:15:23;15.10;99.90
36594;DHT22;22603;47.900;8.146;2022-08-19T01:18:12;15.10;99.90
36594;DHT22;22603;47.900;8.146;2022-08-19T01:21:04;15.00;99.90
36594;DHT22;22603;47.900;8.146;2022-08-19T01:23:54;15.00;99.90
36594;DHT22;22603;47.900;8.146;2022-08-19T01:26:43;15.00;99.90
36594;DHT22;22603;47.900;8.146;2022-08-19T01:29:31;15.00;99.90
36594;DHT22;22603;47.900;8.146;2022-08-19T01:32:20;15.00;99.90
36594;DHT22;22603;47.900;8.146;2022-08-19T01:35:19;15.00;99.90
36594;DHT22;22603;47.900;8.146;2022-08-19T01:38:19;15.00;99.90
36594;DHT22;22603;47.900;8.146;2022-08-19T01:41:08;15.00;99.90
36594;DHT22;22603;47.900;8.146;2022-08-19T01:43:55;15.00;99.90
36594;DHT22;22603;47.900;8.146;2022-08-19T01:47:02;15.00;99.90
36594;DHT22;22603;47.900;8.146;2022-08-19T01:49:49;15.00;99.90
36594;DHT22;22603;47.900;8.146;2022-08-19T01:52:36;15.00;99.90
36594;DHT22;22603;47.900;8.146;2022-08-19T01:55:24;15.00;99.90
36594;DHT22;22603;47.900;8.146;2022-08-19T01:58:15;15.00;99.90
36594;DHT22;22603;47.900;8.146;2022-08-19T02:01:05;15.00;99.90
36594;DHT22;22603;47.900;8.146;2022-08-19T02:03:52;15.00;99.90
36594;DHT22;22603;47.900;8.146;2022-08-19T02:06:42;15.00;99.90
36594;DHT22;22603;47.900;8.146;2022-08-19T02:09:30;15.00;99.90
36594;DHT22;22603;47.900;8.146;2022-08-19T02:12:17;15.10;99.90
36594;DHT22;22603;47.900;8.146;2022-08-19T02:15:07;15.10;99.90
36594;DHT22;22603;47.900;8.146;2022-08-19T02:17:54;15.10;99.90
36594;DHT22;22603;47.900;8.146;2022-08-19T02:20:43;15.10;99.90
36594;DHT22;22603;47.900;8.146;2022-08-19T02:23:31;15.10;99.90
36594;DHT22;22603;47.900;8.146;2022-08-19T02:26:18;15.10;99.90
36594;DHT22;22603;47.900;8.146;2022-08-19T02:29:05;15.10;99.90
36594;DHT22;22603;47.900;8.146;2022-08-19T02:31:53;15.10;99.90
36594;DHT22;22603;47.900;8.146;2022-08-19T02:34:41;15.10;99.90
36594;DHT22;22603;47.900;8.146;2022-08-19T02:37:28;15.10;99.90
36594;DHT22;22603;47.900;8.146;2022-08-19T02:40:33;15.10;99.90
36594;DHT22;22603;47.900;8.146;2022-08-19T02:43:22;15.10;99.90
36594;DHT22;22603;47.900;8.146;2022-08-19T02:46:14;15.10;99.90
36594;DHT22;22603;47.900;8.146;2022-08-19T02:49:06;15.10;99.90
36594;DHT22;22603;47.900;8.146;2022-08-19T02:51:53;15.10;99.90
36594;DHT22;22603;47.900;8.146;2022-08-19T02:54:40;15.10;99.90
36594;DHT22;22603;47.900;8.146;2022-08-19T02:57:27;15.10;99.90
36594;DHT22;22603;47.900;8.146;2022-08-19T03:00:17;15.10;99.90
36594;DHT22;22603;47.900;8.146;2022-08-19T03:03:04;15.20;99.90
36594;DHT22;22603;47.900;8.146;2022-08-19T03:06:03;15.20;99.90
36594;DHT22;22603;47.900;8.146;2022-08-19T03:08:51;15.20;99.90
36594;DHT22;22603;47.900;8.146;2022-08-19T03:11:38;15.20;99.90
36594;DHT22;22603;47.900;8.146;2022-08-19T03:14:25;15.20;99.90
36594;DHT22;22603;47.900;8.146;2022-08-19T03:17:13;15.20;99.90
36594;DHT22;22603;47.900;8.146;2022-08-19T03:20:02;15.20;99.90
36594;DHT22;22603;47.900;8.146;2022-08-19T03:22:51;15.30;99.90
36594;DHT22;22603;47.900;8.146;2022-08-19T03:25:41;15.30;99.90
36594;DHT22;22603;47.900;8.146;2022-08-19T03:28:29;15.20;99.90
36594;DHT22;22603;47.900;8.146;2022-08-19T03:31:18;15.20;99.90
36594;DHT22;22603;47.900;8.146;2022-08-19T03:34:29;15.30;99.90
36594;DHT22;22603;47.900;8.146;2022-08-19T03:37:16;15.30;99.90
36594;DHT22;22603;47.900;8.146;2022-08-19T03:40:05;15.30;99.90
36594;DHT22;22603;47.900;8.146;2022-08-19T03:42:58;15.30;99.90
36594;DHT22;22603;47.900;8.146;2022-08-19T03:45:45;15.30;99.90
36594;DHT22;22603;47.900;8.146;2022-08-19T03:48:34;15.30;99.90
36594;DHT22;22603;47.900;8.146;2022-08-19T03:51:24;15.30;99.90
36594;DHT22;22603;47.900;8.146;2022-08-19T03:54:17;15.30;99.90
36594;DHT22;22603;47.900;8.146;2022-08-19T03:57:06;15.30;99.90
36594;DHT22;22603;47.900;8.146;2022-08-19T03:59:54;15.30;99.90
36594;DHT22;22603;47.900;8.146;2022-08-19T04:02:58;15.30;99.90
36594;DHT22;22603;47.900;8.146;2022-08-19T04:05:46;15.30;99.90
36594;DHT22;22603;47.900;8.146;2022-08-19T04:08:33;15.30;99.90
36594;DHT22;22603;47.900;8.146;2022-08-19T04:11:23;15.30;99.90
36594;DHT22;22603;47.900;8.146;2022-08-19T04:14:30;15.30;99.90
36594;DHT22;22603;47.900;8.146;2022-08-19T04:17:19;15.20;99.90
36594;DHT22;22603;47.900;8.146;2022-08-19T04:20:07;15.20;99.90
36594;DHT22;22603;47.900;8.146;2022-08-19T04:22:56;15.20;99.90
36594;DHT22;22603;47.900;8.146;2022-08-19T04:25:44;15.20;99.90
36594;DHT22;22603;47.900;8.146;2022-08-19T04:28:31;15.20;99.90
36594;DHT22;22603;47.900;8.146;2022-08-19T04:31:23;15.20;99.90
36594;DHT22;22603;47.900;8.146;2022-08-19T04:34:12;15.30;99.90
36594;DHT22;22603;47.900;8.146;2022-08-19T04:37:00;15.30;99.90
36594;DHT22;22603;47.900;8.146;2022-08-19T04:39:46;15.20;99.90
36594;DHT22;22603;47.900;8.146;2022-08-19T04:42:59;15.20;99.90
36594;DHT22;22603;47.900;8.146;2022-08-19T04:45:46;15.30;99.90
36594;DHT22;22603;47.900;8.146;2022-08-19T04:48:40;15.30;99.90
36594;DHT22;22603;47.900;8.146;2022-08-19T04:51:34;15.20;99.90
36594;DHT22;22603;47.900;8.146;2022-08-19T04:54:23;15.30;99.90
36594;DHT22;22603;47.900;8.146;2022-08-19T04:57:23;15.30;99.90
36594;DHT22;22603;47.900;8.146;2022-08-19T05:00:11;15.30;99.90
36594;DHT22;22603;47.900;8.146;2022-08-19T05:03:02;15.30;99.90
36594;DHT22;22603;47.900;8.146;2022-08-19T05:05:53;15.30;99.90
36594;DHT22;22603;47.900;8.146;2022-08-19T05:08:42;15.40;99.90
36594;DHT22;22603;47.900;8.146;2022-08-19T05:11:31;15.40;99.90
36594;DHT22;22603;47.900;8.146;2022-08-19T05:14:17;15.40;99.90
36594;DHT22;22603;47.900;8.146;2022-08-19T05:17:07;15.40;99.90
36594;DHT22;22603;47.900;8.146;2022-08-19T05:20:14;15.40;99.90
36594;DHT22;22603;47.900;8.146;2022-08-19T05:23:20;15.40;99.90
36594;DHT22;22603;47.900;8.146;2022-08-19T05:26:07;15.40;99.90
36594;DHT22;22603;47.900;8.146;2022-08-19T05:28:56;15.40;99.90
36594;DHT22;22603;47.900;8.146;2022-08-19T05:31:46;15.50;99.90
36594;DHT22;22603;47.900;8.146;2022-08-19T05:34:34;15.50;99.90
36594;DHT22;22603;47.900;8.146;2022-08-19T05:37:23;15.50;99.90
36594;DHT22;22603;47.900;8.146;2022-08-19T05:40:14;15.50;99.90
36594;DHT22;22603;47.900;8.146;2022-08-19T05:43:03;15.50;99.90
36594;DHT22;22603;47.900;8.146;2022-08-19T05:45:50;15.50;99.90
36594;DHT22;22603;47.900;8.146;2022-08-19T05:48:37;15.60;99.90
36594;DHT22;22603;47.900;8.146;2022-08-19T05:51:25;15.60;99.90
36594;DHT22;22603;47.900;8.146;2022-08-19T05:54:13;15.60;99.90
36594;DHT22;22603;47.900;8.146;2022-08-19T05:57:02;15.50;99.90
36594;DHT22;22603;47.900;8.146;2022-08-19T05:59:49;15.60;99.90
36594;DHT22;22603;47.900;8.146;2022-08-19T06:02:43;15.60;99.90
36594;DHT22;22603;47.900;8.146;2022-08-19T06:05:30;15.60;99.90
36594;DHT22;22603;47.900;8.146;2022-08-19T06:08:31;15.60;99.90
36594;DHT22;22603;47.900;8.146;2022-08-19T06:11:21;15.60;99.90
36594;DHT22;22603;47.900;8.146;2022-08-19T06:14:13;15.70;99.90
36594;DHT22;22603;47.900;8.146;2022-08-19T06:17:02;15.70;99.90
36594;DHT22;22603;47.900;8.146;2022-08-19T06:19:51;15.70;99.90
36594;DHT22;22603;47.900;8.146;2022-08-19T06:22:39;15.80;99.90
36594;DHT22;22603;47.900;8.146;2022-08-19T06:25:27;15.80;99.90
36594;DHT22;22603;47.900;8.146;2022-08-19T06:28:19;15.80;99.90
36594;DHT22;22603;47.900;8.146;2022-08-19T06:31:09;15.80;99.90
36594;DHT22;22603;47.900;8.146;2022-08-19T06:33:57;15.90;99.90
36594;DHT22;22603;47.900;8.146;2022-08-19T06:36:46;15.90;99.90
36594;DHT22;22603;47.900;8.146;2022-08-19T06:39:37;15.90;99.90
36594;DHT22;22603;47.900;8.146;2022-08-19T06:42:25;16.00;99.90
36594;DHT22;22603;47.900;8.146;2022-08-19T06:45:12;16.10;99.90
36594;DHT22;22603;47.900;8.146;2022-08-19T06:48:02;16.00;99.90
36594;DHT22;22603;47.900;8.146;2022-08-19T06:50:49;16.10;99.90
36594;DHT22;22603;47.900;8.146;2022-08-19T06:53:36;16.10;99.90
36594;DHT22;22603;47.900;8.146;2022-08-19T06:56:26;16.20;99.90
36594;DHT22;22603;47.900;8.146;2022-08-19T06:59:20;16.30;99.90
36594;DHT22;22603;47.900;8.146;2022-08-19T07:02:08;16.40;99.90
36594;DHT22;22603;47.900;8.146;2022-08-19T07:04:56;16.60;99.90
36594;DHT22;22603;47.900;8.146;2022-08-19T07:07:43;16.70;99.90
36594;DHT22;22603;47.900;8.146;2022-08-19T07:10:31;16.70;99.90
36594;DHT22;22603;47.900;8.146;2022-08-19T07:13:21;16.80;99.90
36594;DHT22;22603;47.900;8.146;2022-08-19T07:16:10;16.80;99.90
36594;DHT22;22603;47.900;8.146;2022-08-19T07:18:58;16.80;99.90
36594;DHT22;22603;47.900;8.146;2022-08-19T07:22:02;16.80;99.90
36594;DHT22;22603;47.900;8.146;2022-08-19T07:24:50;16.70;99.90
36594;DHT22;22603;47.900;8.146;2022-08-19T07:27:38;16.60;99.90
36594;DHT22;22603;47.900;8.146;2022-08-19T07:30:25;16.50;99.90
36594;DHT22;22603;47.900;8.146;2022-08-19T07:33:12;16.40;99.90
36594;DHT22;22603;47.900;8.146;2022-08-19T07:35:59;16.50;99.90
36594;DHT22;22603;47.900;8.146;2022-08-19T07:38:49;16.50;99.90
36594;DHT22;22603;47.900;8.146;2022-08-19T07:41:37;16.50;99.90
36594;DHT22;22603;47.900;8.146;2022-08-19T07:44:26;16.60;99.90
36594;DHT22;22603;47.900;8.146;2022-08-19T07:47:13;16.60;99.90
36594;DHT22;22603;47.900;8.146;2022-08-19T07:50:23;16.60;99.90
36594;DHT22;22603;47.900;8.146;2022-08-19T07:53:10;16.60;99.90
36594;DHT22;22603;47.900;8.146;2022-08-19T07:56:01;16.60;99.90
36594;DHT22;22603;47.900;8.146;2022-08-19T07:58:51;16.50;99.90
36594;DHT22;22603;47.900;8.146;2022-08-19T08:01:39;16.60;99.90
36594;DHT22;22603;47.900;8.146;2022-08-19T08:04:26;16.50;99.90
36594;DHT22;22603;47.900;8.146;2022-08-19T08:07:45;16.60;99.90
36594;DHT22;22603;47.900;8.146;2022-08-19T08:10:50;16.60;99.90
36594;DHT22;22603;47.900;8.146;2022-08-19T08:13:43;16.60;99.90
36594;DHT22;22603;47.900;8.146;2022-08-19T08:16:30;16.70;99.90
36594;DHT22;22603;47.900;8.146;2022-08-19T08:19:22;16.60;99.90
36594;DHT22;22603;47.900;8.146;2022-08-19T08:22:14;16.60;99.90
36594;DHT22;22603;47.900;8.146;2022-08-19T08:25:29;16.60;99.90
36594;DHT22;22603;47.900;8.146;2022-08-19T08:28:19;16.70;99.90
36594;DHT22;22603;47.900;8.146;2022-08-19T08:31:08;16.60;99.90
36594;DHT22;22603;47.900;8.146;2022-08-19T08:33:56;16.60;99.90
36594;DHT22;22603;47.900;8.146;2022-08-19T08:36:44;16.60;99.90
36594;DHT22;22603;47.900;8.146;2022-08-19T08:39:32;16.60;99.90
36594;DHT22;22603;47.900;8.146;2022-08-19T08:42:24;16.60;99.90
36594;DHT22;22603;47.900;8.146;2022-08-19T08:45:17;16.70;99.90
36594;DHT22;22603;47.900;8.146;2022-08-19T08:48:13;16.60;99.90
36594;DHT22;22603;47.900;8.146;2022-08-19T08:51:11;16.60;99.90
36594;DHT22;22603;47.900;8.146;2022-08-19T08:54:07;16.50;99.90
36594;DHT22;22603;47.900;8.146;2022-08-19T08:56:54;16.50;99.90
36594;DHT22;22603;47.900;8.146;2022-08-19T08:59:43;16.60;99.90
36594;DHT22;22603;47.900;8.146;2022-08-19T09:02:36;16.50;99.90
36594;DHT22;22603;47.900;8.146;2022-08-19T09:05:35;16.50;99.90
36594;DHT22;22603;47.900;8.146;2022-08-19T09:08:52;16.50;99.90
36594;DHT22;22603;47.900;8.146;2022-08-19T09:11:55;16.60;99.90
36594;DHT22;22603;47.900;8.146;2022-08-19T09:14:47;16.60;99.90
36594;DHT22;22603;47.900;8.146;2022-08-19T09:17:37;16.70;99.90
36594;DHT22;22603;47.900;8.146;2022-08-19T09:20:24;16.80;99.90
36594;DHT22;22603;47.900;8.146;2022-08-19T09:23:13;16.80;99.90
36594;DHT22;22603;47.900;8.146;2022-08-19T09:26:01;16.70;99.90
36594;DHT22;22603;47.900;8.146;2022-08-19T09:28:50;16.60;99.90
36594;DHT22;22603;47.900;8.146;2022-08-19T09:31:38;16.60;99.90
36594;DHT22;22603;47.900;8.146;2022-08-19T09:34:26;16.60;99.90
36594;DHT22;22603;47.900;8.146;2022-08-19T09:37:22;16.60;99.90
36594;DHT22;22603;47.900;8.146;2022-08-19T09:40:12;16.50;99.90
36594;DHT22;22603;47.900;8.146;2022-08-19T09:43:00;16.50;99.90
36594;DHT22;22603;47.900;8.146;2022-08-19T09:45:58;16.50;99.90
36594;DHT22;22603;47.900;8.146;2022-08-19T09:48:45;16.50;99.90
36594;DHT22;22603;47.900;8.146;2022-08-19T09:51:33;16.50;99.90
36594;DHT22;22603;47.900;8.146;2022-08-19T09:54:22;16.60;99.90
36594;DHT22;22603;47.900;8.146;2022-08-19T09:57:11;16.50;99.90
36594;DHT22;22603;47.900;8.146;2022-08-19T09:59:57;16.50;99.90
36594;DHT22;22603;47.900;8.146;2022-08-19T10:02:45;16.40;99.90
36594;DHT22;22603;47.900;8.146;2022-08-19T10:05:31;16.40;99.90
36594;DHT22;22603;47.900;8.146;2022-08-19T10:08:40;16.30;99.90
36594;DHT22;22603;47.900;8.146;2022-08-19T10:11:36;16.40;99.90
36594;DHT22;22603;47.900;8.146;2022-08-19T10:14:29;16.50;99.90
36594;DHT22;22603;47.900;8.146;2022-08-19T10:17:18;16.50;99.90
36594;DHT22;22603;47.900;8.146;2022-08-19T10:20:11;16.60;99.90
36594;DHT22;22603;47.900;8.146;2022-08-19T10:22:58;16.60;99.90
36594;DHT22;22603;47.900;8.146;2022-08-19T10:25:46;16.60;99.90
36594;DHT22;22603;47.900;8.146;2022-08-19T10:28:33;16.80;99.90
36594;DHT22;22603;47.900;8.146;2022-08-19T10:31:28;17.00;99.90
36594;DHT22;22603;47.900;8.146;2022-08-19T10:34:37;16.80;99.90
36594;DHT22;22603;47.900;8.146;2022-08-19T10:37:33;16.80;99.90
36594;DHT22;22603;47.900;8.146;2022-08-19T10:40:33;16.80;99.90
36594;DHT22;22603;47.900;8.146;2022-08-19T10:43:20;16.80;99.90
36594;DHT22;22603;47.900;8.146;2022-08-19T10:46:09;16.80;99.90
36594;DHT22;22603;47.900;8.146;2022-08-19T10:49:04;16.70;99.90
36594;DHT22;22603;47.900;8.146;2022-08-19T10:51:51;16.90;99.90
36594;DHT22;22603;47.900;8.146;2022-08-19T10:55:05;17.00;99.90
36594;DHT22;22603;47.900;8.146;2022-08-19T10:58:16;17.20;99.90
36594;DHT22;22603;47.900;8.146;2022-08-19T11:01:07;17.30;99.90
36594;DHT22;22603;47.900;8.146;2022-08-19T11:03:55;17.40;99.90
36594;DHT22;22603;47.900;8.146;2022-08-19T11:06:43;17.50;99.90
36594;DHT22;22603;47.900;8.146;2022-08-19T11:09:38;17.70;99.90
36594;DHT22;22603;47.900;8.146;2022-08-19T11:12:25;17.80;99.90
36594;DHT22;22603;47.900;8.146;2022-08-19T11:15:14;17.80;99.90
36594;DHT22;22603;47.900;8.146;2022-08-19T11:18:01;17.80;99.90
36594;DHT22;22603;47.900;8.146;2022-08-19T11:20:49;17.90;99.90
36594;DHT22;22603;47.900;8.146;2022-08-19T11:23:37;18.10;99.90
36594;DHT22;22603;47.900;8.146;2022-08-19T11:26:25;18.20;99.90
36594;DHT22;22603;47.900;8.146;2022-08-19T11:29:13;18.30;99.90
36594;DHT22;22603;47.900;8.146;2022-08-19T11:32:04;18.40;99.90
36594;DHT22;22603;47.900;8.146;2022-08-19T11:34:51;18.40;99.90
36594;DHT22;22603;47.900;8.146;2022-08-19T11:37:39;18.60;99.90
36594;DHT22;22603;47.900;8.146;2022-08-19T11:40:27;19.00;99.90
36594;DHT22;22603;47.900;8.146;2022-08-19T11:43:14;19.10;99.90
36594;DHT22;22603;47.900;8.146;2022-08-19T11:46:04;19.10;99.90
36594;DHT22;22603;47.900;8.146;2022-08-19T11:48:52;19.10;99.90
36594;DHT22;22603;47.900;8.146;2022-08-19T11:51:40;19.10;99.90
36594;DHT22;22603;47.900;8.146;2022-08-19T11:54:29;19.20;99.90
36594;DHT22;22603;47.900;8.146;2022-08-19T11:57:17;19.10;99.90
36594;DHT22;22603;47.900;8.146;2022-08-19T12:00:06;19.10;99.90
36594;DHT22;22603;47.900;8.146;2022-08-19T12:02:54;19.20;99.90
36594;DHT22;22603;47.900;8.146;2022-08-19T12:05:41;19.20;99.90
36594;DHT22;22603;47.900;8.146;2022-08-19T12:08:28;19.20;99.90
36594;DHT22;22603;47.900;8.146;2022-08-19T12:11:16;19.10;99.90
36594;DHT22;22603;47.900;8.146;2022-08-19T12:14:04;19.30;99.90
36594;DHT22;22603;47.900;8.146;2022-08-19T12:16:51;19.50;99.90
36594;DHT22;22603;47.900;8.146;2022-08-19T12:19:39;19.60;99.90
36594;DHT22;22603;47.900;8.146;2022-08-19T12:22:26;19.70;99.90
36594;DHT22;22603;47.900;8.146;2022-08-19T12:25:13;19.80;99.90
36594;DHT22;22603;47.900;8.146;2022-08-19T12:28:01;20.00;99.90
36594;DHT22;22603;47.900;8.146;2022-08-19T12:30:50;20.00;99.90
36594;DHT22;22603;47.900;8.146;2022-08-19T12:33:38;19.90;99.90
36594;DHT22;22603;47.900;8.146;2022-08-19T12:36:25;19.80;99.90
36594;DHT22;22603;47.900;8.146;2022-08-19T12:39:12;20.00;99.90
36594;DHT22;22603;47.900;8.146;2022-08-19T12:41:59;20.00;99.90
36594;DHT22;22603;47.900;8.146;2022-08-19T12:44:47;20.30;99.90
36594;DHT22;22603;47.900;8.146;2022-08-19T12:47:35;20.60;99.90
36594;DHT22;22603;47.900;8.146;2022-08-19T12:50:25;20.90;99.90
36594;DHT22;22603;47.900;8.146;2022-08-19T12:53:13;21.10;99.90
36594;DHT22;22603;47.900;8.146;2022-08-19T12:56:00;21.00;99.90
36594;DHT22;22603;47.900;8.146;2022-08-19T12:58:51;20.90;99.90
36594;DHT22;22603;47.900;8.146;2022-08-19T13:01:39;20.60;99.90
36594;DHT22;22603;47.900;8.146;2022-08-19T13:04:28;20.50;99.90
36594;DHT22;22603;47.900;8.146;2022-08-19T13:07:15;20.40;99.90
36594;DHT22;22603;47.900;8.146;2022-08-19T13:10:03;20.40;99.90
36594;DHT22;22603;47.900;8.146;2022-08-19T13:12:51;20.50;99.90
36594;DHT22;22603;47.900;8.146;2022-08-19T13:15:40;20.50;99.90
36594;DHT22;22603;47.900;8.146;2022-08-19T13:18:28;20.50;99.90
36594;DHT22;22603;47.900;8.146;2022-08-19T13:21:27;20.50;99.90
36594;DHT22;22603;47.900;8.146;2022-08-19T13:24:15;20.40;99.90
36594;DHT22;22603;47.900;8.146;2022-08-19T13:27:02;20.40;99.90
36594;DHT22;22603;47.900;8.146;2022-08-19T13:29:49;20.50;99.90
36594;DHT22;22603;47.900;8.146;2022-08-19T13:32:54;20.70;99.90
36594;DHT22;22603;47.900;8.146;2022-08-19T13:36:01;21.10;99.90
36594;DHT22;22603;47.900;8.146;2022-08-19T13:38:53;21.30;99.90
36594;DHT22;22603;47.900;8.146;2022-08-19T13:41:44;21.40;99.90
36594;DHT22;22603;47.900;8.146;2022-08-19T13:44:40;21.60;99.90
36594;DHT22;22603;47.900;8.146;2022-08-19T13:47:38;21.70;99.90
36594;DHT22;22603;47.900;8.146;2022-08-19T13:50:30;21.60;99.90
36594;DHT22;22603;47.900;8.146;2022-08-19T13:53:18;21.80;99.90
36594;DHT22;22603;47.900;8.146;2022-08-19T13:56:07;21.70;99.90
36594;DHT22;22603;47.900;8.146;2022-08-19T13:58:54;21.70;99.90
36594;DHT22;22603;47.900;8.146;2022-08-19T14:01:44;21.50;99.90
36594;DHT22;22603;47.900;8.146;2022-08-19T14:04:31;21.40;99.90
36594;DHT22;22603;47.900;8.146;2022-08-19T14:07:18;21.40;99.90
36594;DHT22;22603;47.900;8.146;2022-08-19T14:10:08;21.70;99.90
36594;DHT22;22603;47.900;8.146;2022-08-19T14:12:58;21.90;99.90
36594;DHT22;22603;47.900;8.146;2022-08-19T14:15:45;21.70;99.90
36594;DHT22;22603;47.900;8.146;2022-08-19T14:18:33;21.60;99.90
36594;DHT22;22603;47.900;8.146;2022-08-19T14:21:24;21.40;99.90
36594;DHT22;22603;47.900;8.146;2022-08-19T14:24:11;21.30;99.90
36594;DHT22;22603;47.900;8.146;2022-08-19T14:26:59;21.40;99.90
36594;DHT22;22603;47.900;8.146;2022-08-19T14:29:47;21.50;99.90
36594;DHT22;22603;47.900;8.146;2022-08-19T14:32:34;21.40;99.90
36594;DHT22;22603;47.900;8.146;2022-08-19T14:35:22;21.80;99.90
36594;DHT22;22603;47.900;8.146;2022-08-19T14:38:14;22.10;99.90
36594;DHT22;22603;47.900;8.146;2022-08-19T14:41:08;22.10;99.90
36594;DHT22;22603;47.900;8.146;2022-08-19T14:43:56;22.00;99.90
36594;DHT22;22603;47.900;8.146;2022-08-19T14:46:47;21.70;99.90
36594;DHT22;22603;47.900;8.146;2022-08-19T14:49:34;21.60;99.90
36594;DHT22;22603;47.900;8.146;2022-08-19T14:52:29;21.50;99.90
36594;DHT22;22603;47.900;8.146;2022-08-19T14:55:19;21.70;99.90
36594;DHT22;22603;47.900;8.146;2022-08-19T14:58:06;21.70;99.90
36594;DHT22;22603;47.900;8.146;2022-08-19T15:01:14;21.40;99.90
36594;DHT22;22603;47.900;8.146;2022-08-19T15:04:04;21.20;99.90
36594;DHT22;22603;47.900;8.146;2022-08-19T15:06:50;21.10;99.90
36594;DHT22;22603;47.900;8.146;2022-08-19T15:09:37;21.10;99.90
36594;DHT22;22603;47.900;8.146;2022-08-19T15:12:25;21.00;99.90
36594;DHT22;22603;47.900;8.146;2022-08-19T15:15:13;21.10;99.90
36594;DHT22;22603;47.900;8.146;2022-08-19T15:18:02;21.00;99.90
36594;DHT22;22603;47.900;8.146;2022-08-19T15:20:51;20.90;99.90
36594;DHT22;22603;47.900;8.146;2022-08-19T15:23:39;20.80;99.90
36594;DHT22;22603;47.900;8.146;2022-08-19T15:26:30;20.60;99.90
36594;DHT22;22603;47.900;8.146;2022-08-19T15:29:17;20.30;99.90
36594;DHT22;22603;47.900;8.146;2022-08-19T15:32:07;20.20;99.90
36594;DHT22;22603;47.900;8.146;2022-08-19T15:34:54;20.00;99.90
36594;DHT22;22603;47.900;8.146;2022-08-19T15:37:43;20.00;99.90
36594;DHT22;22603;47.900;8.146;2022-08-19T15:40:31;19.90;99.90
36594;DHT22;22603;47.900;8.146;2022-08-19T15:43:18;19.80;99.90
36594;DHT22;22603;47.900;8.146;2022-08-19T15:46:06;19.70;99.90
36594;DHT22;22603;47.900;8.146;2022-08-19T15:48:54;19.90;99.90
36594;DHT22;22603;47.900;8.146;2022-08-19T15:51:46;20.00;99.90
36594;DHT22;22603;47.900;8.146;2022-08-19T15:54:35;20.00;99.90
36594;DHT22;22603;47.900;8.146;2022-08-19T15:57:22;20.20;99.90
36594;DHT22;22603;47.900;8.146;2022-08-19T16:00:27;20.30;99.90
36594;DHT22;22603;47.900;8.146;2022-08-19T16:03:37;20.40;99.90
36594;DHT22;22603;47.900;8.146;2022-08-19T16:06:46;20.40;99.90
36594;DHT22;22603;47.900;8.146;2022-08-19T16:09:34;20.20;99.90
36594;DHT22;22603;47.900;8.146;2022-08-19T16:12:22;20.00;99.90
36594;DHT22;22603;47.900;8.146;2022-08-19T16:15:12;19.80;99.90
36594;DHT22;22603;47.900;8.146;2022-08-19T16:18:00;19.60;99.90
36594;DHT22;22603;47.900;8.146;2022-08-19T16:20:48;19.50;99.90
36594;DHT22;22603;47.900;8.146;2022-08-19T16:23:36;19.40;99.90
36594;DHT22;22603;47.900;8.146;2022-08-19T16:26:25;19.40;99.90
36594;DHT22;22603;47.900;8.146;2022-08-19T16:29:17;19.40;99.90
36594;DHT22;22603;47.900;8.146;2022-08-19T16:32:19;19.40;99.90
36594;DHT22;22603;47.900;8.146;2022-08-19T16:35:06;19.40;99.90
36594;DHT22;22603;47.900;8.146;2022-08-19T16:37:54;19.30;99.90
36594;DHT22;22603;47.900;8.146;2022-08-19T16:40:41;19.30;99.90
36594;DHT22;22603;47.900;8.146;2022-08-19T16:43:32;19.30;99.90
36594;DHT22;22603;47.900;8.146;2022-08-19T16:46:20;19.20;99.90
36594;DHT22;22603;47.900;8.146;2022-08-19T16:49:13;19.20;99.90
36594;DHT22;22603;47.900;8.146;2022-08-19T16:52:05;19.30;99.90
36594;DHT22;22603;47.900;8.146;2022-08-19T16:54:54;19.30;99.90
36594;DHT22;22603;47.900;8.146;2022-08-19T16:57:41;19.30;99.90
36594;DHT22;22603;47.900;8.146;2022-08-19T17:00:29;19.30;99.90
36594;DHT22;22603;47.900;8.146;2022-08-19T17:03:18;19.40;99.90
36594;DHT22;22603;47.900;8.146;2022-08-19T17:06:23;19.30;99.90
36594;DHT22;22603;47.900;8.146;2022-08-19T17:09:11;19.30;99.90
36594;DHT22;22603;47.900;8.146;2022-08-19T17:12:00;19.30;99.90
36594;DHT22;22603;47.900;8.146;2022-08-19T17:14:47;19.30;99.90
36594;DHT22;22603;47.900;8.146;2022-08-19T17:17:35;19.30;99.90
36594;DHT22;22603;47.900;8.146;2022-08-19T17:20:23;19.20;99.90
36594;DHT22;22603;47.900;8.146;2022-08-19T17:23:11;19.10;99.90
36594;DHT22;22603;47.900;8.146;2022-08-19T17:26:00;19.20;99.90
36594;DHT22;22603;47.900;8.146;2022-08-19T17:28:49;19.10;99.90
36594;DHT22;22603;47.900;8.146;2022-08-19T17:31:36;19.10;99.90
36594;DHT22;22603;47.900;8.146;2022-08-19T17:34:24;19.00;99.90
36594;DHT22;22603;47.900;8.146;2022-08-19T17:37:12;19.10;99.90
36594;DHT22;22603;47.900;8.146;2022-08-19T17:40:00;19.10;99.90
36594;DHT22;22603;47.900;8.146;2022-08-19T17:42:51;19.10;99.90
36594;DHT22;22603;47.900;8.146;2022-08-19T17:45:39;19.00;99.90
36594;DHT22;22603;47.900;8.146;2022-08-19T17:48:28;19.10;99.90
36594;DHT22;22603;47.900;8.146;2022-08-19T17:51:24;19.20;99.90
36594;DHT22;22603;47.900;8.146;2022-08-19T17:54:16;19.20;99.90
36594;DHT22;22603;47.900;8.146;2022-08-19T17:57:04;19.20;99.90